sensor_id;sensor_type;location;lat;lon;timestamp;P1;durP1;ratioP1;P2;durP2;ratioP2
22005;SDS011;11167;46.988;15.470;2023-07-31T00:01:20;1.32;;;0.78;;
22005;SDS011;11167;46.988;15.470;2023-07-31T00:03:21;1.12;;;0.85;;
22005;SDS011;11167;46.988;15.470;2023-07-31T00:05:22;1.30;;;0.90;;
22005;SDS011;11167;46.988;15.470;2023-07-31T00:07:23;0.93;;;0.70;;
22005;SDS011;11167;46.988;15.470;2023-07-31T00:09:25;0.80;;;0.78;;
22005;SDS011;11167;46.988;15.470;2023-07-31T00:11:26;0.90;;;0.80;;
22005;SDS011;11167;46.988;15.470;2023-07-31T00:13:27;1.77;;;0.90;;
22005;SDS011;11167;46.988;15.470;2023-07-31T00:15:28;1.17;;;1.00;;
22005;SDS011;11167;46.988;15.470;2023-07-31T00:17:30;1.10;;;0.93;;
22005;SDS011;11167;46.988;15.470;2023-07-31T00:19:31;1.42;;;1.07;;
22005;SDS011;11167;46.988;15.470;2023-07-31T00:21:32;1.20;;;1.00;;
22005;SDS011;11167;46.988;15.470;2023-07-31T00:23:33;1.57;;;1.10;;
22005;SDS011;11167;46.988;15.470;2023-07-31T00:25:34;1.75;;;1.30;;
22005;SDS011;11167;46.988;15.470;2023-07-31T00:27:35;1.72;;;1.30;;
22005;SDS011;11167;46.988;15.470;2023-07-31T00:29:36;2.22;;;1.20;;
22005;SDS011;11167;46.988;15.470;2023-07-31T00:31:37;1.20;;;1.00;;
22005;SDS011;11167;46.988;15.470;2023-07-31T00:33:38;1.77;;;1.00;;
22005;SDS011;11167;46.988;15.470;2023-07-31T00:35:39;1.70;;;1.07;;
22005;SDS011;11167;46.988;15.470;2023-07-31T00:37:41;1.67;;;1.32;;
22005;SDS011;11167;46.988;15.470;2023-07-31T00:39:42;2.75;;;1.50;;
22005;SDS011;11167;46.988;15.470;2023-07-31T00:41:43;3.22;;;1.27;;
22005;SDS011;11167;46.988;15.470;2023-07-31T00:43:44;1.55;;;1.30;;
22005;SDS011;11167;46.988;15.470;2023-07-31T00:45:45;1.60;;;1.15;;
22005;SDS011;11167;46.988;15.470;2023-07-31T00:47:46;2.72;;;0.95;;
22005;SDS011;11167;46.988;15.470;2023-07-31T00:49:47;1.70;;;1.20;;
22005;SDS011;11167;46.988;15.470;2023-07-31T00:51:48;1.65;;;1.17;;
22005;SDS011;11167;46.988;15.470;2023-07-31T00:53:50;2.05;;;1.40;;
22005;SDS011;11167;46.988;15.470;2023-07-31T00:55:51;1.50;;;1.05;;
22005;SDS011;11167;46.988;15.470;2023-07-31T00:57:52;3.75;;;1.37;;
22005;SDS011;11167;46.988;15.470;2023-07-31T00:59:55;1.60;;;1.20;;
22005;SDS011;11167;46.988;15.470;2023-07-31T01:01:56;2.27;;;1.27;;
22005;SDS011;11167;46.988;15.470;2023-07-31T01:03:58;1.85;;;1.17;;
22005;SDS011;11167;46.988;15.470;2023-07-31T01:08:34;2.05;;;1.17;;
22005;SDS011;11167;46.988;15.470;2023-07-31T01:10:32;3.92;;;1.10;;
22005;SDS011;11167;46.988;15.470;2023-07-31T01:12:35;1.98;;;1.00;;
22005;SDS011;11167;46.988;15.470;2023-07-31T01:14:38;1.70;;;1.20;;
22005;SDS011;11167;46.988;15.470;2023-07-31T01:16:40;1.42;;;1.25;;
22005;SDS011;11167;46.988;15.470;2023-07-31T01:18:41;2.20;;;1.00;;
22005;SDS011;11167;46.988;15.470;2023-07-31T01:20:42;1.25;;;1.10;;
22005;SDS011;11167;46.988;15.470;2023-07-31T01:25:09;3.12;;;1.50;;
22005;SDS011;11167;46.988;15.470;2023-07-31T01:27:24;2.02;;;1.32;;
22005;SDS011;11167;46.988;15.470;2023-07-31T01:29:43;3.37;;;1.32;;
22005;SDS011;11167;46.988;15.470;2023-07-31T01:31:45;2.75;;;1.40;;
22005;SDS011;11167;46.988;15.470;2023-07-31T01:33:50;2.15;;;1.50;;
22005;SDS011;11167;46.988;15.470;2023-07-31T01:35:54;3.22;;;1.60;;
22005;SDS011;11167;46.988;15.470;2023-07-31T01:37:57;2.45;;;1.25;;
22005;SDS011;11167;46.988;15.470;2023-07-31T01:39:58;1.98;;;1.50;;
22005;SDS011;11167;46.988;15.470;2023-07-31T01:41:59;2.72;;;1.45;;
22005;SDS011;11167;46.988;15.470;2023-07-31T01:44:00;1.72;;;1.50;;
22005;SDS011;11167;46.988;15.470;2023-07-31T01:46:01;2.05;;;1.35;;
22005;SDS011;11167;46.988;15.470;2023-07-31T01:48:02;1.55;;;1.40;;
22005;SDS011;11167;46.988;15.470;2023-07-31T01:50:04;1.30;;;1.20;;
22005;SDS011;11167;46.988;15.470;2023-07-31T01:52:06;1.37;;;1.10;;
22005;SDS011;11167;46.988;15.470;2023-07-31T01:54:07;1.20;;;1.10;;
22005;SDS011;11167;46.988;15.470;2023-07-31T01:56:08;1.85;;;1.50;;
22005;SDS011;11167;46.988;15.470;2023-07-31T01:58:09;2.05;;;1.20;;
22005;SDS011;11167;46.988;15.470;2023-07-31T02:00:10;1.70;;;1.37;;
22005;SDS011;11167;46.988;15.470;2023-07-31T02:02:12;1.45;;;1.35;;
22005;SDS011;11167;46.988;15.470;2023-07-31T02:04:14;1.72;;;1.17;;
22005;SDS011;11167;46.988;15.470;2023-07-31T02:06:14;2.45;;;1.30;;
22005;SDS011;11167;46.988;15.470;2023-07-31T02:08:15;1.35;;;1.25;;
22005;SDS011;11167;46.988;15.470;2023-07-31T02:10:17;1.55;;;1.40;;
22005;SDS011;11167;46.988;15.470;2023-07-31T02:12:18;1.45;;;1.30;;
22005;SDS011;11167;46.988;15.470;2023-07-31T02:14:19;1.62;;;1.37;;
22005;SDS011;11167;46.988;15.470;2023-07-31T02:16:20;1.32;;;1.22;;
22005;SDS011;11167;46.988;15.470;2023-07-31T02:18:21;1.42;;;1.20;;
22005;SDS011;11167;46.988;15.470;2023-07-31T02:20:23;1.67;;;1.20;;
22005;SDS011;11167;46.988;15.470;2023-07-31T02:22:24;1.72;;;1.52;;
22005;SDS011;11167;46.988;15.470;2023-07-31T02:24:25;1.20;;;1.10;;
22005;SDS011;11167;46.988;15.470;2023-07-31T02:26:26;1.50;;;1.30;;
22005;SDS011;11167;46.988;15.470;2023-07-31T02:28:28;2.95;;;1.40;;
22005;SDS011;11167;46.988;15.470;2023-07-31T02:30:29;1.72;;;1.40;;
22005;SDS011;11167;46.988;15.470;2023-07-31T02:32:30;1.75;;;1.45;;
22005;SDS011;11167;46.988;15.470;2023-07-31T02:34:31;2.65;;;1.30;;
22005;SDS011;11167;46.988;15.470;2023-07-31T02:36:32;1.80;;;1.65;;
22005;SDS011;11167;46.988;15.470;2023-07-31T02:38:33;1.57;;;1.30;;
22005;SDS011;11167;46.988;15.470;2023-07-31T02:40:34;1.45;;;1.27;;
22005;SDS011;11167;46.988;15.470;2023-07-31T02:42:36;1.40;;;1.30;;
22005;SDS011;11167;46.988;15.470;2023-07-31T02:44:37;2.15;;;1.20;;
22005;SDS011;11167;46.988;15.470;2023-07-31T02:46:38;1.50;;;1.20;;
22005;SDS011;11167;46.988;15.470;2023-07-31T02:48:39;1.57;;;1.10;;
22005;SDS011;11167;46.988;15.470;2023-07-31T02:50:40;1.37;;;1.20;;
22005;SDS011;11167;46.988;15.470;2023-07-31T02:52:41;1.20;;;1.10;;
22005;SDS011;11167;46.988;15.470;2023-07-31T02:54:42;2.30;;;1.37;;
22005;SDS011;11167;46.988;15.470;2023-07-31T02:56:43;1.20;;;1.10;;
22005;SDS011;11167;46.988;15.470;2023-07-31T02:58:44;1.30;;;1.20;;
22005;SDS011;11167;46.988;15.470;2023-07-31T03:00:45;1.15;;;1.05;;
22005;SDS011;11167;46.988;15.470;2023-07-31T03:02:46;1.95;;;1.12;;
22005;SDS011;11167;46.988;15.470;2023-07-31T03:04:47;1.22;;;1.10;;
22005;SDS011;11167;46.988;15.470;2023-07-31T03:06:48;1.17;;;1.07;;
22005;SDS011;11167;46.988;15.470;2023-07-31T03:08:49;1.10;;;1.00;;
22005;SDS011;11167;46.988;15.470;2023-07-31T03:10:50;1.50;;;1.25;;
22005;SDS011;11167;46.988;15.470;2023-07-31T03:12:51;1.70;;;1.02;;
22005;SDS011;11167;46.988;15.470;2023-07-31T03:14:52;1.87;;;1.17;;
22005;SDS011;11167;46.988;15.470;2023-07-31T03:16:53;2.02;;;1.50;;
22005;SDS011;11167;46.988;15.470;2023-07-31T03:18:55;1.50;;;1.40;;
22005;SDS011;11167;46.988;15.470;2023-07-31T03:20:55;1.70;;;1.50;;
22005;SDS011;11167;46.988;15.470;2023-07-31T03:22:56;1.40;;;1.30;;
22005;SDS011;11167;46.988;15.470;2023-07-31T03:24:58;1.50;;;1.20;;
22005;SDS011;11167;46.988;15.470;2023-07-31T03:26:59;1.55;;;1.30;;
22005;SDS011;11167;46.988;15.470;2023-07-31T03:29:00;1.52;;;1.30;;
22005;SDS011;11167;46.988;15.470;2023-07-31T03:31:01;1.50;;;1.15;;
22005;SDS011;11167;46.988;15.470;2023-07-31T03:33:04;1.30;;;1.20;;
22005;SDS011;11167;46.988;15.470;2023-07-31T03:35:05;1.17;;;1.07;;
22005;SDS011;11167;46.988;15.470;2023-07-31T03:37:07;1.45;;;1.30;;
22005;SDS011;11167;46.988;15.470;2023-07-31T03:39:09;1.77;;;1.25;;
22005;SDS011;11167;46.988;15.470;2023-07-31T03:41:11;1.02;;;0.93;;
22005;SDS011;11167;46.988;15.470;2023-07-31T03:43:12;1.55;;;1.35;;
22005;SDS011;11167;46.988;15.470;2023-07-31T03:45:13;1.87;;;1.30;;
22005;SDS011;11167;46.988;15.470;2023-07-31T03:47:14;1.42;;;1.15;;
22005;SDS011;11167;46.988;15.470;2023-07-31T03:49:15;1.27;;;1.17;;
22005;SDS011;11167;46.988;15.470;2023-07-31T03:51:16;1.50;;;1.20;;
22005;SDS011;11167;46.988;15.470;2023-07-31T03:53:19;1.90;;;1.15;;
22005;SDS011;11167;46.988;15.470;2023-07-31T03:55:20;1.82;;;1.30;;
22005;SDS011;11167;46.988;15.470;2023-07-31T03:57:22;1.92;;;1.10;;
22005;SDS011;11167;46.988;15.470;2023-07-31T03:59:23;1.62;;;1.10;;
22005;SDS011;11167;46.988;15.470;2023-07-31T04:01:26;2.00;;;1.50;;
22005;SDS011;11167;46.988;15.470;2023-07-31T04:03:27;1.35;;;1.25;;
22005;SDS011;11167;46.988;15.470;2023-07-31T04:05:29;1.27;;;1.00;;
22005;SDS011;11167;46.988;15.470;2023-07-31T04:07:32;1.52;;;1.17;;
22005;SDS011;11167;46.988;15.470;2023-07-31T04:09:33;1.80;;;1.27;;
22005;SDS011;11167;46.988;15.470;2023-07-31T04:11:34;1.70;;;1.30;;
22005;SDS011;11167;46.988;15.470;2023-07-31T04:13:35;1.50;;;1.00;;
22005;SDS011;11167;46.988;15.470;2023-07-31T04:15:36;1.75;;;1.17;;
22005;SDS011;11167;46.988;15.470;2023-07-31T04:17:37;2.05;;;1.10;;
22005;SDS011;11167;46.988;15.470;2023-07-31T04:19:38;2.62;;;1.12;;
22005;SDS011;11167;46.988;15.470;2023-07-31T04:21:39;1.02;;;0.93;;
22005;SDS011;11167;46.988;15.470;2023-07-31T04:23:40;1.10;;;1.00;;
22005;SDS011;11167;46.988;15.470;2023-07-31T04:25:41;1.10;;;1.00;;
22005;SDS011;11167;46.988;15.470;2023-07-31T04:27:42;1.25;;;0.90;;
22005;SDS011;11167;46.988;15.470;2023-07-31T04:29:44;0.80;;;0.80;;
22005;SDS011;11167;46.988;15.470;2023-07-31T04:31:47;0.93;;;0.88;;
22005;SDS011;11167;46.988;15.470;2023-07-31T04:33:48;1.45;;;0.90;;
22005;SDS011;11167;46.988;15.470;2023-07-31T04:35:50;1.17;;;1.07;;
22005;SDS011;11167;46.988;15.470;2023-07-31T04:37:53;1.45;;;1.10;;
22005;SDS011;11167;46.988;15.470;2023-07-31T04:39:54;1.05;;;0.90;;
22005;SDS011;11167;46.988;15.470;2023-07-31T04:41:55;1.72;;;1.10;;
22005;SDS011;11167;46.988;15.470;2023-07-31T04:43:56;1.55;;;1.00;;
22005;SDS011;11167;46.988;15.470;2023-07-31T04:45:57;1.40;;;1.10;;
22005;SDS011;11167;46.988;15.470;2023-07-31T04:47:58;1.15;;;1.05;;
22005;SDS011;11167;46.988;15.470;2023-07-31T04:49:59;1.27;;;1.00;;
22005;SDS011;11167;46.988;15.470;2023-07-31T04:52:00;1.17;;;1.05;;
22005;SDS011;11167;46.988;15.470;2023-07-31T04:54:01;1.30;;;0.90;;
22005;SDS011;11167;46.988;15.470;2023-07-31T04:56:03;1.07;;;0.98;;
22005;SDS011;11167;46.988;15.470;2023-07-31T04:58:04;1.30;;;1.20;;
22005;SDS011;11167;46.988;15.470;2023-07-31T05:00:06;2.90;;;1.27;;
22005;SDS011;11167;46.988;15.470;2023-07-31T05:02:08;1.27;;;1.17;;
22005;SDS011;11167;46.988;15.470;2023-07-31T05:04:09;1.20;;;1.07;;
22005;SDS011;11167;46.988;15.470;2023-07-31T05:06:10;1.42;;;1.07;;
22005;SDS011;11167;46.988;15.470;2023-07-31T05:08:12;1.70;;;1.42;;
22005;SDS011;11167;46.988;15.470;2023-07-31T05:10:14;2.22;;;1.62;;
22005;SDS011;11167;46.988;15.470;2023-07-31T05:12:15;1.50;;;1.40;;
22005;SDS011;11167;46.988;15.470;2023-07-31T05:14:16;1.70;;;1.37;;
22005;SDS011;11167;46.988;15.470;2023-07-31T05:16:18;2.33;;;1.52;;
22005;SDS011;11167;46.988;15.470;2023-07-31T05:18:19;1.77;;;1.50;;
22005;SDS011;11167;46.988;15.470;2023-07-31T05:20:20;1.65;;;1.50;;
22005;SDS011;11167;46.988;15.470;2023-07-31T05:22:22;2.10;;;1.55;;
22005;SDS011;11167;46.988;15.470;2023-07-31T05:24:23;1.37;;;1.22;;
22005;SDS011;11167;46.988;15.470;2023-07-31T05:26:24;2.52;;;1.70;;
22005;SDS011;11167;46.988;15.470;2023-07-31T05:28:25;1.47;;;1.37;;
22005;SDS011;11167;46.988;15.470;2023-07-31T05:30:26;2.05;;;1.60;;
22005;SDS011;11167;46.988;15.470;2023-07-31T05:32:27;2.08;;;1.57;;
22005;SDS011;11167;46.988;15.470;2023-07-31T05:34:28;1.40;;;1.30;;
22005;SDS011;11167;46.988;15.470;2023-07-31T05:36:29;2.30;;;1.52;;
22005;SDS011;11167;46.988;15.470;2023-07-31T05:38:31;1.37;;;1.27;;
22005;SDS011;11167;46.988;15.470;2023-07-31T05:40:32;1.45;;;1.35;;
22005;SDS011;11167;46.988;15.470;2023-07-31T05:42:34;2.08;;;1.50;;
22005;SDS011;11167;46.988;15.470;2023-07-31T05:44:37;1.87;;;1.30;;
22005;SDS011;11167;46.988;15.470;2023-07-31T05:46:38;1.37;;;1.27;;
22005;SDS011;11167;46.988;15.470;2023-07-31T05:48:39;1.40;;;1.15;;
22005;SDS011;11167;46.988;15.470;2023-07-31T05:50:40;1.42;;;1.22;;
22005;SDS011;11167;46.988;15.470;2023-07-31T05:52:41;1.42;;;1.27;;
22005;SDS011;11167;46.988;15.470;2023-07-31T05:54:43;1.40;;;1.30;;
22005;SDS011;11167;46.988;15.470;2023-07-31T05:56:44;1.42;;;1.32;;
22005;SDS011;11167;46.988;15.470;2023-07-31T05:58:45;1.52;;;1.30;;
22005;SDS011;11167;46.988;15.470;2023-07-31T06:00:46;1.40;;;1.10;;
22005;SDS011;11167;46.988;15.470;2023-07-31T06:02:47;1.30;;;1.20;;
22005;SDS011;11167;46.988;15.470;2023-07-31T06:04:48;2.55;;;1.37;;
22005;SDS011;11167;46.988;15.470;2023-07-31T06:06:49;1.77;;;1.32;;
22005;SDS011;11167;46.988;15.470;2023-07-31T06:08:51;1.30;;;1.20;;
22005;SDS011;11167;46.988;15.470;2023-07-31T06:10:52;1.40;;;1.02;;
22005;SDS011;11167;46.988;15.470;2023-07-31T06:12:53;1.10;;;1.00;;
22005;SDS011;11167;46.988;15.470;2023-07-31T06:14:54;1.57;;;1.40;;
22005;SDS011;11167;46.988;15.470;2023-07-31T06:16:55;1.22;;;1.10;;
22005;SDS011;11167;46.988;15.470;2023-07-31T06:18:56;1.65;;;1.32;;
22005;SDS011;11167;46.988;15.470;2023-07-31T06:20:57;1.90;;;1.40;;
22005;SDS011;11167;46.988;15.470;2023-07-31T06:22:58;1.50;;;1.40;;
22005;SDS011;11167;46.988;15.470;2023-07-31T06:25:00;1.60;;;1.20;;
22005;SDS011;11167;46.988;15.470;2023-07-31T06:27:01;2.17;;;1.40;;
22005;SDS011;11167;46.988;15.470;2023-07-31T06:29:04;2.10;;;1.37;;
22005;SDS011;11167;46.988;15.470;2023-07-31T06:31:05;1.60;;;1.50;;
22005;SDS011;11167;46.988;15.470;2023-07-31T06:33:06;1.40;;;1.30;;
22005;SDS011;11167;46.988;15.470;2023-07-31T06:35:07;1.45;;;1.35;;
22005;SDS011;11167;46.988;15.470;2023-07-31T06:37:08;1.62;;;1.30;;
22005;SDS011;11167;46.988;15.470;2023-07-31T06:39:10;1.40;;;1.30;;
22005;SDS011;11167;46.988;15.470;2023-07-31T06:41:11;1.70;;;1.40;;
22005;SDS011;11167;46.988;15.470;2023-07-31T06:43:12;1.60;;;1.40;;
22005;SDS011;11167;46.988;15.470;2023-07-31T06:45:14;1.42;;;1.27;;
22005;SDS011;11167;46.988;15.470;2023-07-31T06:47:15;1.52;;;1.42;;
22005;SDS011;11167;46.988;15.470;2023-07-31T06:49:16;1.22;;;1.12;;
22005;SDS011;11167;46.988;15.470;2023-07-31T06:51:17;1.60;;;1.30;;
22005;SDS011;11167;46.988;15.470;2023-07-31T06:53:18;1.45;;;1.30;;
22005;SDS011;11167;46.988;15.470;2023-07-31T06:55:20;1.25;;;1.15;;
22005;SDS011;11167;46.988;15.470;2023-07-31T06:57:22;1.98;;;1.42;;
22005;SDS011;11167;46.988;15.470;2023-07-31T06:59:24;1.55;;;1.20;;
22005;SDS011;11167;46.988;15.470;2023-07-31T07:01:26;1.45;;;1.30;;
22005;SDS011;11167;46.988;15.470;2023-07-31T07:03:29;1.57;;;1.30;;
22005;SDS011;11167;46.988;15.470;2023-07-31T07:05:30;3.30;;;1.30;;
22005;SDS011;11167;46.988;15.470;2023-07-31T07:07:31;1.40;;;1.30;;
22005;SDS011;11167;46.988;15.470;2023-07-31T07:09:32;1.65;;;1.22;;
22005;SDS011;11167;46.988;15.470;2023-07-31T07:11:33;1.42;;;1.10;;
22005;SDS011;11167;46.988;15.470;2023-07-31T07:13:34;1.57;;;1.32;;
22005;SDS011;11167;46.988;15.470;2023-07-31T07:15:39;1.72;;;1.30;;
22005;SDS011;11167;46.988;15.470;2023-07-31T07:17:41;1.37;;;1.25;;
22005;SDS011;11167;46.988;15.470;2023-07-31T07:19:42;1.52;;;1.30;;
22005;SDS011;11167;46.988;15.470;2023-07-31T07:21:43;1.30;;;1.20;;
22005;SDS011;11167;46.988;15.470;2023-07-31T07:23:44;1.62;;;1.30;;
22005;SDS011;11167;46.988;15.470;2023-07-31T07:25:46;1.50;;;1.40;;
22005;SDS011;11167;46.988;15.470;2023-07-31T07:27:48;1.22;;;1.12;;
22005;SDS011;11167;46.988;15.470;2023-07-31T07:32:10;1.65;;;1.30;;
22005;SDS011;11167;46.988;15.470;2023-07-31T07:34:12;1.27;;;1.17;;
22005;SDS011;11167;46.988;15.470;2023-07-31T07:36:13;1.30;;;1.20;;
22005;SDS011;11167;46.988;15.470;2023-07-31T07:38:14;1.70;;;1.30;;
22005;SDS011;11167;46.988;15.470;2023-07-31T07:40:16;2.05;;;1.40;;
22005;SDS011;11167;46.988;15.470;2023-07-31T07:42:17;1.40;;;1.30;;
22005;SDS011;11167;46.988;15.470;2023-07-31T07:44:18;1.57;;;1.25;;
22005;SDS011;11167;46.988;15.470;2023-07-31T07:46:19;1.60;;;1.30;;
22005;SDS011;11167;46.988;15.470;2023-07-31T07:48:21;1.35;;;1.25;;
22005;SDS011;11167;46.988;15.470;2023-07-31T07:52:43;1.47;;;1.20;;
22005;SDS011;11167;46.988;15.470;2023-07-31T07:54:44;1.35;;;1.20;;
22005;SDS011;11167;46.988;15.470;2023-07-31T07:56:45;2.02;;;1.30;;
22005;SDS011;11167;46.988;15.470;2023-07-31T07:58:48;1.67;;;1.12;;
22005;SDS011;11167;46.988;15.470;2023-07-31T08:00:51;1.37;;;1.20;;
22005;SDS011;11167;46.988;15.470;2023-07-31T08:02:52;1.80;;;1.20;;
22005;SDS011;11167;46.988;15.470;2023-07-31T08:04:53;1.30;;;1.20;;
22005;SDS011;11167;46.988;15.470;2023-07-31T08:06:54;1.10;;;1.00;;
22005;SDS011;11167;46.988;15.470;2023-07-31T08:08:56;1.17;;;1.05;;
22005;SDS011;11167;46.988;15.470;2023-07-31T08:10:57;1.55;;;1.27;;
22005;SDS011;11167;46.988;15.470;2023-07-31T08:12:58;1.20;;;1.10;;
22005;SDS011;11167;46.988;15.470;2023-07-31T08:14:59;1.30;;;1.20;;
22005;SDS011;11167;46.988;15.470;2023-07-31T08:17:00;1.47;;;1.12;;
22005;SDS011;11167;46.988;15.470;2023-07-31T08:19:02;3.15;;;1.30;;
22005;SDS011;11167;46.988;15.470;2023-07-31T08:21:03;1.57;;;1.30;;
22005;SDS011;11167;46.988;15.470;2023-07-31T08:23:04;1.10;;;1.00;;
22005;SDS011;11167;46.988;15.470;2023-07-31T08:25:05;1.30;;;1.20;;
22005;SDS011;11167;46.988;15.470;2023-07-31T08:27:08;2.60;;;1.45;;
22005;SDS011;11167;46.988;15.470;2023-07-31T08:29:10;1.50;;;1.40;;
22005;SDS011;11167;46.988;15.470;2023-07-31T08:31:11;1.82;;;1.57;;
22005;SDS011;11167;46.988;15.470;2023-07-31T08:33:12;1.70;;;1.60;;
22005;SDS011;11167;46.988;15.470;2023-07-31T08:35:13;2.12;;;1.80;;
22005;SDS011;11167;46.988;15.470;2023-07-31T08:37:15;2.30;;;1.60;;
22005;SDS011;11167;46.988;15.470;2023-07-31T08:39:16;2.00;;;1.55;;
22005;SDS011;11167;46.988;15.470;2023-07-31T08:41:17;1.55;;;1.45;;
22005;SDS011;11167;46.988;15.470;2023-07-31T08:43:18;2.42;;;1.50;;
22005;SDS011;11167;46.988;15.470;2023-07-31T08:45:20;2.00;;;1.60;;
22005;SDS011;11167;46.988;15.470;2023-07-31T08:47:22;2.12;;;1.45;;
22005;SDS011;11167;46.988;15.470;2023-07-31T08:49:24;1.60;;;1.30;;
22005;SDS011;11167;46.988;15.470;2023-07-31T08:51:26;2.40;;;1.62;;
22005;SDS011;11167;46.988;15.470;2023-07-31T08:53:27;1.52;;;1.40;;
22005;SDS011;11167;46.988;15.470;2023-07-31T08:55:28;2.22;;;1.30;;
22005;SDS011;11167;46.988;15.470;2023-07-31T08:57:30;2.02;;;1.47;;
22005;SDS011;11167;46.988;15.470;2023-07-31T08:59:32;1.55;;;1.40;;
22005;SDS011;11167;46.988;15.470;2023-07-31T09:01:38;1.82;;;1.40;;
22005;SDS011;11167;46.988;15.470;2023-07-31T09:03:42;1.65;;;1.42;;
22005;SDS011;11167;46.988;15.470;2023-07-31T09:05:46;1.60;;;1.37;;
22005;SDS011;11167;46.988;15.470;2023-07-31T09:07:47;1.60;;;1.50;;
22005;SDS011;11167;46.988;15.470;2023-07-31T09:09:50;1.50;;;1.40;;
22005;SDS011;11167;46.988;15.470;2023-07-31T09:11:52;1.50;;;1.40;;
22005;SDS011;11167;46.988;15.470;2023-07-31T09:13:53;1.92;;;1.50;;
22005;SDS011;11167;46.988;15.470;2023-07-31T09:15:58;1.95;;;1.47;;
22005;SDS011;11167;46.988;15.470;2023-07-31T09:18:00;1.50;;;1.40;;
22005;SDS011;11167;46.988;15.470;2023-07-31T09:22:34;1.85;;;1.40;;
22005;SDS011;11167;46.988;15.470;2023-07-31T09:24:35;2.30;;;1.70;;
22005;SDS011;11167;46.988;15.470;2023-07-31T09:26:37;1.62;;;1.30;;
22005;SDS011;11167;46.988;15.470;2023-07-31T09:30:59;1.50;;;1.40;;
22005;SDS011;11167;46.988;15.470;2023-07-31T09:33:01;2.08;;;1.32;;
22005;SDS011;11167;46.988;15.470;2023-07-31T09:37:22;2.52;;;1.60;;
22005;SDS011;11167;46.988;15.470;2023-07-31T09:39:23;2.17;;;1.52;;
22005;SDS011;11167;46.988;15.470;2023-07-31T09:41:26;1.90;;;1.70;;
22005;SDS011;11167;46.988;15.470;2023-07-31T09:43:29;1.52;;;1.42;;
22005;SDS011;11167;46.988;15.470;2023-07-31T09:45:34;1.80;;;1.60;;
22005;SDS011;11167;46.988;15.470;2023-07-31T09:47:37;1.62;;;1.50;;
22005;SDS011;11167;46.988;15.470;2023-07-31T09:49:45;1.75;;;1.60;;
22005;SDS011;11167;46.988;15.470;2023-07-31T09:51:45;1.87;;;1.52;;
22005;SDS011;11167;46.988;15.470;2023-07-31T09:56:11;1.85;;;1.45;;
22005;SDS011;11167;46.988;15.470;2023-07-31T09:58:12;1.40;;;1.30;;
22005;SDS011;11167;46.988;15.470;2023-07-31T10:00:18;1.98;;;1.52;;
22005;SDS011;11167;46.988;15.470;2023-07-31T10:02:20;1.90;;;1.50;;
22005;SDS011;11167;46.988;15.470;2023-07-31T10:04:23;1.80;;;1.50;;
22005;SDS011;11167;46.988;15.470;2023-07-31T10:06:28;1.67;;;1.40;;
22005;SDS011;11167;46.988;15.470;2023-07-31T10:10:53;1.90;;;1.62;;
22005;SDS011;11167;46.988;15.470;2023-07-31T10:12:54;2.30;;;1.70;;
22005;SDS011;11167;46.988;15.470;2023-07-31T10:14:57;2.13;;;1.70;;
22005;SDS011;11167;46.988;15.470;2023-07-31T10:17:00;1.70;;;1.60;;
22005;SDS011;11167;46.988;15.470;2023-07-31T10:19:02;1.82;;;1.50;;
22005;SDS011;11167;46.988;15.470;2023-07-31T10:21:04;2.15;;;1.37;;
22005;SDS011;11167;46.988;15.470;2023-07-31T10:23:05;1.60;;;1.50;;
22005;SDS011;11167;46.988;15.470;2023-07-31T10:25:07;2.12;;;1.70;;
22005;SDS011;11167;46.988;15.470;2023-07-31T10:27:09;1.90;;;1.70;;
22005;SDS011;11167;46.988;15.470;2023-07-31T10:29:11;1.82;;;1.50;;
22005;SDS011;11167;46.988;15.470;2023-07-31T10:31:12;2.10;;;1.57;;
22005;SDS011;11167;46.988;15.470;2023-07-31T10:33:15;1.55;;;1.45;;
22005;SDS011;11167;46.988;15.470;2023-07-31T10:35:20;2.08;;;1.87;;
22005;SDS011;11167;46.988;15.470;2023-07-31T10:37:25;2.22;;;1.77;;
22005;SDS011;11167;46.988;15.470;2023-07-31T10:39:35;2.33;;;1.85;;
22005;SDS011;11167;46.988;15.470;2023-07-31T10:41:38;2.22;;;1.90;;
22005;SDS011;11167;46.988;15.470;2023-07-31T10:43:41;1.85;;;1.60;;
22005;SDS011;11167;46.988;15.470;2023-07-31T10:45:42;2.20;;;1.80;;
22005;SDS011;11167;46.988;15.470;2023-07-31T10:47:45;1.98;;;1.77;;
22005;SDS011;11167;46.988;15.470;2023-07-31T10:49:47;3.12;;;1.57;;
22005;SDS011;11167;46.988;15.470;2023-07-31T10:51:49;1.77;;;1.60;;
22005;SDS011;11167;46.988;15.470;2023-07-31T10:53:50;2.17;;;1.87;;
22005;SDS011;11167;46.988;15.470;2023-07-31T10:55:59;2.00;;;1.75;;
22005;SDS011;11167;46.988;15.470;2023-07-31T10:58:13;1.95;;;1.70;;
22005;SDS011;11167;46.988;15.470;2023-07-31T11:00:21;2.60;;;1.72;;
22005;SDS011;11167;46.988;15.470;2023-07-31T11:02:27;1.50;;;1.40;;
22005;SDS011;11167;46.988;15.470;2023-07-31T11:04:30;1.83;;;1.53;;
22005;SDS011;11167;46.988;15.470;2023-07-31T11:06:33;2.02;;;1.82;;
22005;SDS011;11167;46.988;15.470;2023-07-31T11:08:41;2.10;;;1.72;;
22005;SDS011;11167;46.988;15.470;2023-07-31T11:10:43;2.15;;;1.62;;
22005;SDS011;11167;46.988;15.470;2023-07-31T11:12:45;1.98;;;1.65;;
22005;SDS011;11167;46.988;15.470;2023-07-31T11:14:53;1.77;;;1.65;;
22005;SDS011;11167;46.988;15.470;2023-07-31T11:16:57;1.80;;;1.60;;
22005;SDS011;11167;46.988;15.470;2023-07-31T11:21:24;2.87;;;1.90;;
22005;SDS011;11167;46.988;15.470;2023-07-31T11:23:25;2.37;;;2.02;;
22005;SDS011;11167;46.988;15.470;2023-07-31T11:25:33;2.10;;;1.90;;
22005;SDS011;11167;46.988;15.470;2023-07-31T11:27:38;2.00;;;1.80;;
22005;SDS011;11167;46.988;15.470;2023-07-31T11:29:36;2.72;;;2.00;;
22005;SDS011;11167;46.988;15.470;2023-07-31T11:31:42;1.52;;;1.32;;
22005;SDS011;11167;46.988;15.470;2023-07-31T11:33:44;2.67;;;1.92;;
22005;SDS011;11167;46.988;15.470;2023-07-31T11:35:46;2.20;;;1.67;;
22005;SDS011;11167;46.988;15.470;2023-07-31T11:37:49;2.22;;;2.02;;
22005;SDS011;11167;46.988;15.470;2023-07-31T11:40:00;2.33;;;1.80;;
22005;SDS011;11167;46.988;15.470;2023-07-31T11:42:01;2.77;;;2.02;;
22005;SDS011;11167;46.988;15.470;2023-07-31T11:44:03;1.95;;;1.70;;
22005;SDS011;11167;46.988;15.470;2023-07-31T11:46:04;2.27;;;2.08;;
22005;SDS011;11167;46.988;15.470;2023-07-31T11:48:07;2.00;;;1.80;;
22005;SDS011;11167;46.988;15.470;2023-07-31T11:50:10;1.85;;;1.60;;
22005;SDS011;11167;46.988;15.470;2023-07-31T11:52:12;2.17;;;1.92;;
22005;SDS011;11167;46.988;15.470;2023-07-31T11:54:13;2.12;;;1.80;;
22005;SDS011;11167;46.988;15.470;2023-07-31T11:56:19;3.52;;;2.10;;
22005;SDS011;11167;46.988;15.470;2023-07-31T11:58:22;2.58;;;2.05;;
22005;SDS011;11167;46.988;15.470;2023-07-31T12:00:24;1.87;;;1.60;;
22005;SDS011;11167;46.988;15.470;2023-07-31T12:02:26;1.92;;;1.72;;
22005;SDS011;11167;46.988;15.470;2023-07-31T12:04:27;2.35;;;1.65;;
22005;SDS011;11167;46.988;15.470;2023-07-31T12:06:34;1.98;;;1.75;;
22005;SDS011;11167;46.988;15.470;2023-07-31T12:08:36;3.05;;;1.90;;
22005;SDS011;11167;46.988;15.470;2023-07-31T12:10:38;2.70;;;1.80;;
22005;SDS011;11167;46.988;15.470;2023-07-31T12:12:41;2.12;;;1.62;;
22005;SDS011;11167;46.988;15.470;2023-07-31T12:14:42;2.12;;;1.70;;
22005;SDS011;11167;46.988;15.470;2023-07-31T12:16:43;2.10;;;1.72;;
22005;SDS011;11167;46.988;15.470;2023-07-31T12:18:44;1.85;;;1.60;;
22005;SDS011;11167;46.988;15.470;2023-07-31T12:20:46;1.90;;;1.70;;
22005;SDS011;11167;46.988;15.470;2023-07-31T12:22:58;2.65;;;1.90;;
22005;SDS011;11167;46.988;15.470;2023-07-31T12:24:59;1.65;;;1.42;;
22005;SDS011;11167;46.988;15.470;2023-07-31T12:27:00;1.70;;;1.60;;